sensor_id;sensor_type;location;lat;lon;timestamp;temperature;humidity
43858;DHT22;29507;51.284;5.758;2023-01-04T00:01:04;8.90;99.90
43858;DHT22;29507;51.284;5.758;2023-01-04T00:03:30;8.80;99.90
43858;DHT22;29507;51.284;5.758;2023-01-04T00:06:00;8.70;99.90
43858;DHT22;29507;51.284;5.758;2023-01-04T00:08:26;8.60;99.90
43858;DHT22;29507;51.284;5.758;2023-01-04T00:10:52;8.50;99.90
43858;DHT22;29507;51.284;5.758;2023-01-04T00:13:18;8.40;99.90
43858;DHT22;29507;51.284;5.758;2023-01-04T00:15:43;8.30;99.90
43858;DHT22;29507;51.284;5.758;2023-01-04T00:18:09;8.20;99.90
43858;DHT22;29507;51.284;5.758;2023-01-04T00:20:35;8.20;99.90
43858;DHT22;29507;51.284;5.758;2023-01-04T00:23:00;8.30;99.90
43858;DHT22;29507;51.284;5.758;2023-01-04T00:25:26;8.20;99.90
43858;DHT22;29507;51.284;5.758;2023-01-04T00:27:52;8.20;99.90
43858;DHT22;29507;51.284;5.758;2023-01-04T00:30:17;8.20;99.90
43858;DHT22;29507;51.284;5.758;2023-01-04T00:32:44;8.10;99.90
43858;DHT22;29507;51.284;5.758;2023-01-04T00:35:10;8.20;99.90
43858;DHT22;29507;51.284;5.758;2023-01-04T00:37:36;8.10;99.90
43858;DHT22;29507;51.284;5.758;2023-01-04T00:40:02;8.10;99.90
43858;DHT22;29507;51.284;5.758;2023-01-04T00:42:28;8.00;99.90
43858;DHT22;29507;51.284;5.758;2023-01-04T00:44:54;8.10;99.90
43858;DHT22;29507;51.284;5.758;2023-01-04T00:47:19;8.10;99.90
43858;DHT22;29507;51.284;5.758;2023-01-04T00:49:45;8.00;99.90
43858;DHT22;29507;51.284;5.758;2023-01-04T00:52:11;8.10;99.90
43858;DHT22;29507;51.284;5.758;2023-01-04T00:54:36;8.10;99.90
43858;DHT22;29507;51.284;5.758;2023-01-04T00:57:02;8.10;99.90
43858;DHT22;29507;51.284;5.758;2023-01-04T00:59:29;8.00;99.90
43858;DHT22;29507;51.284;5.758;2023-01-04T01:01:55;8.00;99.90
43858;DHT22;29507;51.284;5.758;2023-01-04T01:04:22;7.90;99.90
43858;DHT22;29507;51.284;5.758;2023-01-04T01:06:49;8.00;99.90
43858;DHT22;29507;51.284;5.758;2023-01-04T01:09:16;7.90;99.90
43858;DHT22;29507;51.284;5.758;2023-01-04T01:11:42;7.90;99.90
43858;DHT22;29507;51.284;5.758;2023-01-04T01:14:10;7.90;99.90
43858;DHT22;29507;51.284;5.758;2023-01-04T01:16:38;7.90;99.90
43858;DHT22;29507;51.284;5.758;2023-01-04T01:19:03;8.00;99.90
43858;DHT22;29507;51.284;5.758;2023-01-04T01:21:29;8.00;99.90
43858;DHT22;29507;51.284;5.758;2023-01-04T01:23:56;8.00;99.90
43858;DHT22;29507;51.284;5.758;2023-01-04T01:26:23;8.00;99.90
43858;DHT22;29507;51.284;5.758;2023-01-04T01:28:49;8.00;99.90
43858;DHT22;29507;51.284;5.758;2023-01-04T01:31:23;8.00;99.90
43858;DHT22;29507;51.284;5.758;2023-01-04T01:33:51;8.10;99.90
43858;DHT22;29507;51.284;5.758;2023-01-04T01:36:19;8.10;99.90
43858;DHT22;29507;51.284;5.758;2023-01-04T01:38:45;8.10;99.90
43858;DHT22;29507;51.284;5.758;2023-01-04T01:41:18;8.10;99.90
43858;DHT22;29507;51.284;5.758;2023-01-04T01:43:59;8.10;99.90
43858;DHT22;29507;51.284;5.758;2023-01-04T01:46:37;8.00;99.90
43858;DHT22;29507;51.284;5.758;2023-01-04T01:49:27;8.10;99.90
43858;DHT22;29507;51.284;5.758;2023-01-04T01:51:55;8.10;99.90
43858;DHT22;29507;51.284;5.758;2023-01-04T01:54:25;8.20;99.90
43858;DHT22;29507;51.284;5.758;2023-01-04T01:56:52;8.20;99.90
43858;DHT22;29507;51.284;5.758;2023-01-04T01:59:20;8.20;99.90
43858;DHT22;29507;51.284;5.758;2023-01-04T02:01:46;8.30;99.90
43858;DHT22;29507;51.284;5.758;2023-01-04T02:04:14;8.30;99.90
43858;DHT22;29507;51.284;5.758;2023-01-04T02:06:45;8.40;99.90
43858;DHT22;29507;51.284;5.758;2023-01-04T02:09:12;8.50;99.90
43858;DHT22;29507;51.284;5.758;2023-01-04T02:11:37;8.50;99.90
43858;DHT22;29507;51.284;5.758;2023-01-04T02:14:04;8.50;99.90
43858;DHT22;29507;51.284;5.758;2023-01-04T02:28:13;8.40;99.90
43858;DHT22;29507;51.284;5.758;2023-01-04T02:43:58;9.00;99.90
43858;DHT22;29507;51.284;5.758;2023-01-04T02:46:54;9.00;99.90
43858;DHT22;29507;51.284;5.758;2023-01-04T02:49:22;9.00;99.90
43858;DHT22;29507;51.284;5.758;2023-01-04T02:52:07;9.00;99.90
43858;DHT22;29507;51.284;5.758;2023-01-04T02:54:33;9.00;99.90
43858;DHT22;29507;51.284;5.758;2023-01-04T02:59:49;8.90;99.90
43858;DHT22;29507;51.284;5.758;2023-01-04T03:11:18;8.90;99.90
43858;DHT22;29507;51.284;5.758;2023-01-04T03:14:13;8.90;99.90
43858;DHT22;29507;51.284;5.758;2023-01-04T03:16:41;8.80;99.90
43858;DHT22;29507;51.284;5.758;2023-01-04T03:19:10;8.80;99.90
43858;DHT22;29507;51.284;5.758;2023-01-04T03:21:41;8.80;99.90
43858;DHT22;29507;51.284;5.758;2023-01-04T03:24:09;8.90;99.90
43858;DHT22;29507;51.284;5.758;2023-01-04T03:27:03;9.00;99.90
43858;DHT22;29507;51.284;5.758;2023-01-04T03:30:03;9.00;99.90
43858;DHT22;29507;51.284;5.758;2023-01-04T03:33:02;9.00;99.90
43858;DHT22;29507;51.284;5.758;2023-01-04T03:41:17;9.20;99.90
43858;DHT22;29507;51.284;5.758;2023-01-04T03:44:13;9.20;99.90
43858;DHT22;29507;51.284;5.758;2023-01-04T03:47:12;9.10;99.90
43858;DHT22;29507;51.284;5.758;2023-01-04T03:50:10;9.10;99.90
43858;DHT22;29507;51.284;5.758;2023-01-04T03:52:39;9.10;99.90
43858;DHT22;29507;51.284;5.758;2023-01-04T03:55:07;9.10;99.90
43858;DHT22;29507;51.284;5.758;2023-01-04T03:57:35;9.10;99.90
43858;DHT22;29507;51.284;5.758;2023-01-04T04:00:06;9.20;99.90
43858;DHT22;29507;51.284;5.758;2023-01-04T04:02:35;9.10;99.90
43858;DHT22;29507;51.284;5.758;2023-01-04T04:05:02;9.00;99.90
43858;DHT22;29507;51.284;5.758;2023-01-04T04:07:47;9.00;99.90
43858;DHT22;29507;51.284;5.758;2023-01-04T04:10:31;9.00;99.90
43858;DHT22;29507;51.284;5.758;2023-01-04T04:12:57;8.90;99.90
43858;DHT22;29507;51.284;5.758;2023-01-04T04:15:22;8.90;99.90
43858;DHT22;29507;51.284;5.758;2023-01-04T04:17:48;8.90;99.90
43858;DHT22;29507;51.284;5.758;2023-01-04T04:20:14;8.90;99.90
43858;DHT22;29507;51.284;5.758;2023-01-04T04:22:40;8.90;99.90
43858;DHT22;29507;51.284;5.758;2023-01-04T04:25:05;8.90;99.90
43858;DHT22;29507;51.284;5.758;2023-01-04T04:27:31;8.90;99.90
43858;DHT22;29507;51.284;5.758;2023-01-04T04:29:57;8.80;99.90
43858;DHT22;29507;51.284;5.758;2023-01-04T04:32:23;8.90;99.90
43858;DHT22;29507;51.284;5.758;2023-01-04T04:34:48;8.90;99.90
43858;DHT22;29507;51.284;5.758;2023-01-04T04:37:14;8.90;99.90
43858;DHT22;29507;51.284;5.758;2023-01-04T04:39:39;9.00;99.90
43858;DHT22;29507;51.284;5.758;2023-01-04T04:42:05;9.00;99.90
43858;DHT22;29507;51.284;5.758;2023-01-04T04:44:33;9.10;99.90
43858;DHT22;29507;51.284;5.758;2023-01-04T04:46:59;9.10;99.90
43858;DHT22;29507;51.284;5.758;2023-01-04T04:49:25;9.10;99.90
43858;DHT22;29507;51.284;5.758;2023-01-04T04:51:50;9.10;99.90
43858;DHT22;29507;51.284;5.758;2023-01-04T04:54:18;9.10;99.90
43858;DHT22;29507;51.284;5.758;2023-01-04T04:56:45;9.10;99.90
43858;DHT22;29507;51.284;5.758;2023-01-04T04:59:11;9.10;99.90
43858;DHT22;29507;51.284;5.758;2023-01-04T05:01:37;9.10;99.90
43858;DHT22;29507;51.284;5.758;2023-01-04T05:04:03;9.10;99.90
43858;DHT22;29507;51.284;5.758;2023-01-04T05:06:28;9.10;99.90
43858;DHT22;29507;51.284;5.758;2023-01-04T05:08:54;9.10;99.90
43858;DHT22;29507;51.284;5.758;2023-01-04T05:11:20;9.10;99.90
43858;DHT22;29507;51.284;5.758;2023-01-04T05:14:05;9.20;99.90
43858;DHT22;29507;51.284;5.758;2023-01-04T05:16:31;9.20;99.90
43858;DHT22;29507;51.284;5.758;2023-01-04T05:18:57;9.20;99.90
43858;DHT22;29507;51.284;5.758;2023-01-04T05:21:22;9.30;99.90
43858;DHT22;29507;51.284;5.758;2023-01-04T05:23:48;9.30;99.90
43858;DHT22;29507;51.284;5.758;2023-01-04T05:26:14;9.40;99.90
43858;DHT22;29507;51.284;5.758;2023-01-04T05:28:39;9.50;99.90
43858;DHT22;29507;51.284;5.758;2023-01-04T05:31:05;9.50;99.90
43858;DHT22;29507;51.284;5.758;2023-01-04T05:33:31;9.50;99.90
43858;DHT22;29507;51.284;5.758;2023-01-04T05:35:59;9.60;99.90
43858;DHT22;29507;51.284;5.758;2023-01-04T05:38:25;9.60;99.90
43858;DHT22;29507;51.284;5.758;2023-01-04T05:40:52;9.60;99.90
43858;DHT22;29507;51.284;5.758;2023-01-04T05:43:18;9.50;99.90
43858;DHT22;29507;51.284;5.758;2023-01-04T05:45:53;9.50;99.90
43858;DHT22;29507;51.284;5.758;2023-01-04T05:48:21;9.50;99.90
43858;DHT22;29507;51.284;5.758;2023-01-04T05:50:47;9.50;99.90
43858;DHT22;29507;51.284;5.758;2023-01-04T05:53:14;9.40;99.90
43858;DHT22;29507;51.284;5.758;2023-01-04T05:55:42;9.40;99.90
43858;DHT22;29507;51.284;5.758;2023-01-04T05:58:08;9.50;99.90
43858;DHT22;29507;51.284;5.758;2023-01-04T06:00:34;9.50;99.90
43858;DHT22;29507;51.284;5.758;2023-01-04T06:02:59;9.50;99.90
43858;DHT22;29507;51.284;5.758;2023-01-04T06:05:25;9.50;99.90
43858;DHT22;29507;51.284;5.758;2023-01-04T06:07:51;9.50;99.90
43858;DHT22;29507;51.284;5.758;2023-01-04T06:10:18;9.60;99.90
43858;DHT22;29507;51.284;5.758;2023-01-04T06:12:45;9.70;99.90
43858;DHT22;29507;51.284;5.758;2023-01-04T06:15:10;9.80;99.90
43858;DHT22;29507;51.284;5.758;2023-01-04T06:17:37;9.80;99.90
43858;DHT22;29507;51.284;5.758;2023-01-04T06:20:05;9.90;99.90
43858;DHT22;29507;51.284;5.758;2023-01-04T06:22:31;9.90;99.90
43858;DHT22;29507;51.284;5.758;2023-01-04T06:24:57;9.90;99.90
43858;DHT22;29507;51.284;5.758;2023-01-04T06:27:23;10.00;99.90
43858;DHT22;29507;51.284;5.758;2023-01-04T06:29:49;10.00;99.90
43858;DHT22;29507;51.284;5.758;2023-01-04T06:32:15;10.10;99.90
43858;DHT22;29507;51.284;5.758;2023-01-04T06:34:41;10.10;99.90
43858;DHT22;29507;51.284;5.758;2023-01-04T06:37:06;10.00;99.90
43858;DHT22;29507;51.284;5.758;2023-01-04T06:39:34;9.90;99.90
43858;DHT22;29507;51.284;5.758;2023-01-04T06:42:01;9.90;99.90
43858;DHT22;29507;51.284;5.758;2023-01-04T06:44:27;9.80;99.90
43858;DHT22;29507;51.284;5.758;2023-01-04T06:46:52;9.80;99.90
43858;DHT22;29507;51.284;5.758;2023-01-04T06:49:18;9.90;99.90
43858;DHT22;29507;51.284;5.758;2023-01-04T06:51:44;9.90;99.90
43858;DHT22;29507;51.284;5.758;2023-01-04T06:54:10;9.90;99.90
43858;DHT22;29507;51.284;5.758;2023-01-04T06:56:39;9.80;99.90
43858;DHT22;29507;51.284;5.758;2023-01-04T06:59:05;9.90;99.90
43858;DHT22;29507;51.284;5.758;2023-01-04T07:01:31;9.90;99.90
43858;DHT22;29507;51.284;5.758;2023-01-04T07:03:57;10.00;99.90
43858;DHT22;29507;51.284;5.758;2023-01-04T07:06:22;10.00;99.90
43858;DHT22;29507;51.284;5.758;2023-01-04T07:08:48;10.00;99.90
43858;DHT22;29507;51.284;5.758;2023-01-04T07:11:14;10.10;99.90
43858;DHT22;29507;51.284;5.758;2023-01-04T07:13:39;10.20;99.90
43858;DHT22;29507;51.284;5.758;2023-01-04T07:16:05;10.30;99.90
43858;DHT22;29507;51.284;5.758;2023-01-04T07:18:31;10.40;99.90
43858;DHT22;29507;51.284;5.758;2023-01-04T07:20:57;10.50;99.90
43858;DHT22;29507;51.284;5.758;2023-01-04T07:23:22;10.60;99.90
43858;DHT22;29507;51.284;5.758;2023-01-04T07:25:48;10.50;99.90
43858;DHT22;29507;51.284;5.758;2023-01-04T07:28:14;10.50;99.90
43858;DHT22;29507;51.284;5.758;2023-01-04T07:31:06;10.50;99.90
43858;DHT22;29507;51.284;5.758;2023-01-04T07:33:32;10.50;99.90
43858;DHT22;29507;51.284;5.758;2023-01-04T07:36:02;10.50;99.90
43858;DHT22;29507;51.284;5.758;2023-01-04T07:38:28;10.50;99.90
43858;DHT22;29507;51.284;5.758;2023-01-04T07:40:54;10.40;99.90
43858;DHT22;29507;51.284;5.758;2023-01-04T07:43:20;10.40;99.90
43858;DHT22;29507;51.284;5.758;2023-01-04T07:45:45;10.40;99.90
43858;DHT22;29507;51.284;5.758;2023-01-04T07:48:11;10.40;99.90
43858;DHT22;29507;51.284;5.758;2023-01-04T07:50:37;10.40;99.90
43858;DHT22;29507;51.284;5.758;2023-01-04T07:53:02;10.50;99.90
43858;DHT22;29507;51.284;5.758;2023-01-04T07:55:28;10.50;99.90
43858;DHT22;29507;51.284;5.758;2023-01-04T07:57:54;10.60;99.90
43858;DHT22;29507;51.284;5.758;2023-01-04T08:00:20;10.70;99.90
43858;DHT22;29507;51.284;5.758;2023-01-04T08:02:47;10.70;99.90
43858;DHT22;29507;51.284;5.758;2023-01-04T08:05:13;10.70;99.90
43858;DHT22;29507;51.284;5.758;2023-01-04T08:07:39;10.60;99.90
43858;DHT22;29507;51.284;5.758;2023-01-04T08:10:05;10.60;99.90
43858;DHT22;29507;51.284;5.758;2023-01-04T08:12:31;10.60;99.90
43858;DHT22;29507;51.284;5.758;2023-01-04T08:14:56;10.50;99.90
43858;DHT22;29507;51.284;5.758;2023-01-04T08:17:22;10.50;99.90
43858;DHT22;29507;51.284;5.758;2023-01-04T08:19:47;10.40;99.90
43858;DHT22;29507;51.284;5.758;2023-01-04T08:22:13;10.40;99.90
43858;DHT22;29507;51.284;5.758;2023-01-04T08:24:39;10.50;99.90
43858;DHT22;29507;51.284;5.758;2023-01-04T08:27:04;10.60;99.90
43858;DHT22;29507;51.284;5.758;2023-01-04T08:29:32;10.60;99.90
43858;DHT22;29507;51.284;5.758;2023-01-04T08:31:58;10.70;99.90
43858;DHT22;29507;51.284;5.758;2023-01-04T08:34:23;10.80;99.90
43858;DHT22;29507;51.284;5.758;2023-01-04T08:36:50;10.80;99.90
43858;DHT22;29507;51.284;5.758;2023-01-04T08:39:17;10.90;99.90
43858;DHT22;29507;51.284;5.758;2023-01-04T08:41:43;11.00;99.90
43858;DHT22;29507;51.284;5.758;2023-01-04T08:44:24;11.00;99.90
43858;DHT22;29507;51.284;5.758;2023-01-04T08:46:52;11.10;99.90
43858;DHT22;29507;51.284;5.758;2023-01-04T08:49:18;11.10;99.90
43858;DHT22;29507;51.284;5.758;2023-01-04T08:51:44;11.20;99.90
43858;DHT22;29507;51.284;5.758;2023-01-04T08:54:11;11.20;99.90
43858;DHT22;29507;51.284;5.758;2023-01-04T08:56:37;11.20;99.90
43858;DHT22;29507;51.284;5.758;2023-01-04T08:59:04;11.30;99.90
43858;DHT22;29507;51.284;5.758;2023-01-04T09:01:31;11.30;99.90
43858;DHT22;29507;51.284;5.758;2023-01-04T09:03:57;11.40;99.90
43858;DHT22;29507;51.284;5.758;2023-01-04T09:06:23;11.50;99.90
43858;DHT22;29507;51.284;5.758;2023-01-04T09:08:49;11.50;99.90
43858;DHT22;29507;51.284;5.758;2023-01-04T09:11:17;11.50;99.90
43858;DHT22;29507;51.284;5.758;2023-01-04T09:13:43;11.60;99.90
43858;DHT22;29507;51.284;5.758;2023-01-04T09:16:12;11.50;99.90
43858;DHT22;29507;51.284;5.758;2023-01-04T09:18:37;11.30;99.90
43858;DHT22;29507;51.284;5.758;2023-01-04T09:21:08;11.20;99.90
43858;DHT22;29507;51.284;5.758;2023-01-04T09:23:35;11.30;99.90
43858;DHT22;29507;51.284;5.758;2023-01-04T09:26:13;11.30;99.90
43858;DHT22;29507;51.284;5.758;2023-01-04T09:28:39;11.40;99.90
43858;DHT22;29507;51.284;5.758;2023-01-04T09:31:10;11.40;99.90
43858;DHT22;29507;51.284;5.758;2023-01-04T09:33:36;11.40;99.90
43858;DHT22;29507;51.284;5.758;2023-01-04T09:36:03;11.30;99.90
43858;DHT22;29507;51.284;5.758;2023-01-04T09:38:30;11.30;99.90
43858;DHT22;29507;51.284;5.758;2023-01-04T09:41:41;11.40;99.90
43858;DHT22;29507;51.284;5.758;2023-01-04T09:51:59;11.00;99.90
43858;DHT22;29507;51.284;5.758;2023-01-04T09:57:34;11.10;99.90
43858;DHT22;29507;51.284;5.758;2023-01-04T10:03:12;11.10;99.90
43858;DHT22;29507;51.284;5.758;2023-01-04T10:05:31;11.00;99.90
43858;DHT22;29507;51.284;5.758;2023-01-04T10:07:57;11.00;99.90
43858;DHT22;29507;51.284;5.758;2023-01-04T10:11:00;11.00;99.90
43858;DHT22;29507;51.284;5.758;2023-01-04T10:22:05;11.00;99.90
43858;DHT22;29507;51.284;5.758;2023-01-04T10:28:16;11.00;99.90
43858;DHT22;29507;51.284;5.758;2023-01-04T10:33:24;11.00;99.90
43858;DHT22;29507;51.284;5.758;2023-01-04T10:35:51;11.00;99.90
43858;DHT22;29507;51.284;5.758;2023-01-04T10:38:22;11.00;99.90
43858;DHT22;29507;51.284;5.758;2023-01-04T10:40:49;11.00;99.90
43858;DHT22;29507;51.284;5.758;2023-01-04T10:48:39;11.00;99.90
43858;DHT22;29507;51.284;5.758;2023-01-04T10:51:06;11.00;99.90
43858;DHT22;29507;51.284;5.758;2023-01-04T10:56:28;11.10;99.90
43858;DHT22;29507;51.284;5.758;2023-01-04T10:59:07;11.10;99.90
43858;DHT22;29507;51.284;5.758;2023-01-04T11:01:42;11.10;99.90
43858;DHT22;29507;51.284;5.758;2023-01-04T11:04:23;11.10;99.90
43858;DHT22;29507;51.284;5.758;2023-01-04T11:12:05;11.40;99.90
43858;DHT22;29507;51.284;5.758;2023-01-04T11:14:34;11.30;99.90
43858;DHT22;29507;51.284;5.758;2023-01-04T11:17:02;11.30;99.90
43858;DHT22;29507;51.284;5.758;2023-01-04T11:19:30;11.30;99.90
43858;DHT22;29507;51.284;5.758;2023-01-04T11:25:13;11.30;99.90
43858;DHT22;29507;51.284;5.758;2023-01-04T11:28:02;11.20;99.90
43858;DHT22;29507;51.284;5.758;2023-01-04T11:30:53;11.30;99.90
43858;DHT22;29507;51.284;5.758;2023-01-04T11:33:21;11.30;99.90
43858;DHT22;29507;51.284;5.758;2023-01-04T11:35:53;11.30;99.90
43858;DHT22;29507;51.284;5.758;2023-01-04T11:38:23;11.30;99.90
43858;DHT22;29507;51.284;5.758;2023-01-04T11:41:00;11.30;99.90
43858;DHT22;29507;51.284;5.758;2023-01-04T11:43:30;11.30;99.90
43858;DHT22;29507;51.284;5.758;2023-01-04T11:50:57;11.30;99.90
43858;DHT22;29507;51.284;5.758;2023-01-04T11:53:30;11.20;99.90
43858;DHT22;29507;51.284;5.758;2023-01-04T11:56:20;11.20;99.90
43858;DHT22;29507;51.284;5.758;2023-01-04T11:59:05;11.20;99.90
43858;DHT22;29507;51.284;5.758;2023-01-04T12:01:43;11.10;99.90
43858;DHT22;29507;51.284;5.758;2023-01-04T12:04:19;11.20;99.90
43858;DHT22;29507;51.284;5.758;2023-01-04T12:09:15;11.20;99.90
43858;DHT22;29507;51.284;5.758;2023-01-04T12:11:45;11.20;99.90
43858;DHT22;29507;51.284;5.758;2023-01-04T12:14:34;11.20;99.90
43858;DHT22;29507;51.284;5.758;2023-01-04T12:19:33;11.30;99.90
43858;DHT22;29507;51.284;5.758;2023-01-04T12:22:01;11.30;99.90
43858;DHT22;29507;51.284;5.758;2023-01-04T12:24:32;11.30;99.90
43858;DHT22;29507;51.284;5.758;2023-01-04T12:26:59;11.30;99.90
43858;DHT22;29507;51.284;5.758;2023-01-04T12:29:41;11.40;99.90
43858;DHT22;29507;51.284;5.758;2023-01-04T12:34:48;11.40;99.90
43858;DHT22;29507;51.284;5.758;2023-01-04T12:45:45;11.30;99.90
43858;DHT22;29507;51.284;5.758;2023-01-04T12:48:32;11.40;99.90
43858;DHT22;29507;51.284;5.758;2023-01-04T12:51:20;11.40;99.90
43858;DHT22;29507;51.284;5.758;2023-01-04T12:54:00;11.50;99.90
43858;DHT22;29507;51.284;5.758;2023-01-04T12:59:35;11.40;99.90
43858;DHT22;29507;51.284;5.758;2023-01-04T13:02:22;11.40;99.90
43858;DHT22;29507;51.284;5.758;2023-01-04T13:04:50;11.40;99.90
43858;DHT22;29507;51.284;5.758;2023-01-04T13:07:20;11.40;99.90
43858;DHT22;29507;51.284;5.758;2023-01-04T13:09:53;11.40;99.90
43858;DHT22;29507;51.284;5.758;2023-01-04T13:13:33;11.40;99.90
43858;DHT22;29507;51.284;5.758;2023-01-04T13:23:56;11.50;99.90
43858;DHT22;29507;51.284;5.758;2023-01-04T13:29:20;11.50;99.90
43858;DHT22;29507;51.284;5.758;2023-01-04T13:31:49;11.50;99.90
43858;DHT22;29507;51.284;5.758;2023-01-04T13:34:31;11.50;99.90
43858;DHT22;29507;51.284;5.758;2023-01-04T13:39:48;11.50;99.90
43858;DHT22;29507;51.284;5.758;2023-01-04T13:47:20;11.50;99.90
43858;DHT22;29507;51.284;5.758;2023-01-04T13:49:46;11.50;99.90
43858;DHT22;29507;51.284;5.758;2023-01-04T13:52:30;11.50;99.90
43858;DHT22;29507;51.284;5.758;2023-01-04T13:55:19;11.50;99.90
43858;DHT22;29507;51.284;5.758;2023-01-04T13:58:06;11.60;99.90
43858;DHT22;29507;51.284;5.758;2023-01-04T14:00:43;11.60;99.90
43858;DHT22;29507;51.284;5.758;2023-01-04T14:05:36;11.60;99.90
43858;DHT22;29507;51.284;5.758;2023-01-04T14:08:02;11.60;99.90
43858;DHT22;29507;51.284;5.758;2023-01-04T14:10:33;11.60;99.90
43858;DHT22;29507;51.284;5.758;2023-01-04T14:13:00;11.50;99.90
43858;DHT22;29507;51.284;5.758;2023-01-04T14:15:27;11.50;99.90
43858;DHT22;29507;51.284;5.758;2023-01-04T14:17:55;11.60;99.90
43858;DHT22;29507;51.284;5.758;2023-01-04T14:22:54;11.60;99.90
43858;DHT22;29507;51.284;5.758;2023-01-04T14:30:48;11.70;99.90
43858;DHT22;29507;51.284;5.758;2023-01-04T14:33:18;11.80;99.90
43858;DHT22;29507;51.284;5.758;2023-01-04T14:35:45;11.80;99.90
43858;DHT22;29507;51.284;5.758;2023-01-04T14:38:26;11.90;99.90
43858;DHT22;29507;51.284;5.758;2023-01-04T14:40:52;12.00;99.90
43858;DHT22;29507;51.284;5.758;2023-01-04T14:44:01;12.00;99.90
43858;DHT22;29507;51.284;5.758;2023-01-04T14:46:30;12.10;99.90
43858;DHT22;29507;51.284;5.758;2023-01-04T14:48:56;12.20;99.90
43858;DHT22;29507;51.284;5.758;2023-01-04T14:51:34;12.20;99.90
43858;DHT22;29507;51.284;5.758;2023-01-04T14:54:03;12.10;99.90
43858;DHT22;29507;51.284;5.758;2023-01-04T14:56:29;12.20;99.90
43858;DHT22;29507;51.284;5.758;2023-01-04T14:58:54;12.20;99.90
43858;DHT22;29507;51.284;5.758;2023-01-04T15:01:20;12.20;99.90
43858;DHT22;29507;51.284;5.758;2023-01-04T15:03:46;12.20;99.90
43858;DHT22;29507;51.284;5.758;2023-01-04T15:06:11;12.20;99.90
43858;DHT22;29507;51.284;5.758;2023-01-04T15:08:38;12.20;99.90
43858;DHT22;29507;51.284;5.758;2023-01-04T15:11:03;12.20;99.90
43858;DHT22;29507;51.284;5.758;2023-01-04T15:13:29;12.20;99.90
43858;DHT22;29507;51.284;5.758;2023-01-04T15:15:56;12.20;99.90
43858;DHT22;29507;51.284;5.758;2023-01-04T15:18:22;12.20;99.90
43858;DHT22;29507;51.284;5.758;2023-01-04T15:20:48;12.20;99.90
43858;DHT22;29507;51.284;5.758;2023-01-04T15:23:13;12.20;99.90
43858;DHT22;29507;51.284;5.758;2023-01-04T15:25:39;12.20;99.90
43858;DHT22;29507;51.284;5.758;2023-01-04T15:28:06;12.10;99.90
43858;DHT22;29507;51.284;5.758;2023-01-04T15:30:32;11.90;99.90
43858;DHT22;29507;51.284;5.758;2023-01-04T15:32:58;11.80;99.90
43858;DHT22;29507;51.284;5.758;2023-01-04T15:35:24;11.70;99.90
43858;DHT22;29507;51.284;5.758;2023-01-04T15:37:50;11.70;99.90
43858;DHT22;29507;51.284;5.758;2023-01-04T15:40:17;11.60;99.90
43858;DHT22;29507;51.284;5.758;2023-01-04T15:42:43;11.60;99.90
43858;DHT22;29507;51.284;5.758;2023-01-04T15:45:33;11.50;99.90
43858;DHT22;29507;51.284;5.758;2023-01-04T15:48:01;11.50;99.90
43858;DHT22;29507;51.284;5.758;2023-01-04T15:50:32;11.50;99.90
43858;DHT22;29507;51.284;5.758;2023-01-04T15:52:58;11.40;99.90
43858;DHT22;29507;51.284;5.758;2023-01-04T15:55:24;11.40;99.90
43858;DHT22;29507;51.284;5.758;2023-01-04T15:57:50;11.40;99.90
43858;DHT22;29507;51.284;5.758;2023-01-04T16:00:16;11.40;99.90
43858;DHT22;29507;51.284;5.758;2023-01-04T16:02:41;11.40;99.90
43858;DHT22;29507;51.284;5.758;2023-01-04T16:05:08;11.40;99.90
43858;DHT22;29507;51.284;5.758;2023-01-04T16:07:34;11.50;99.90
43858;DHT22;29507;51.284;5.758;2023-01-04T16:10:00;11.40;99.90
43858;DHT22;29507;51.284;5.758;2023-01-04T16:12:25;11.50;99.90
43858;DHT22;29507;51.284;5.758;2023-01-04T16:15:08;11.40;99.90
43858;DHT22;29507;51.284;5.758;2023-01-04T16:17:34;11.40;99.90
43858;DHT22;29507;51.284;5.758;2023-01-04T16:20:00;11.30;99.90
43858;DHT22;29507;51.284;5.758;2023-01-04T16:22:26;11.30;99.90
43858;DHT22;29507;51.284;5.758;2023-01-04T16:24:52;11.30;99.90
43858;DHT22;29507;51.284;5.758;2023-01-04T16:27:18;11.30;99.90
43858;DHT22;29507;51.284;5.758;2023-01-04T16:29:43;11.30;99.90
43858;DHT22;29507;51.284;5.758;2023-01-04T16:32:09;11.30;99.90
43858;DHT22;29507;51.284;5.758;2023-01-04T16:34:35;11.30;99.90
43858;DHT22;29507;51.284;5.758;2023-01-04T16:37:01;11.30;99.90
43858;DHT22;29507;51.284;5.758;2023-01-04T16:39:27;11.40;99.90
43858;DHT22;29507;51.284;5.758;2023-01-04T16:41:53;11.40;99.90
43858;DHT22;29507;51.284;5.758;2023-01-04T16:44:18;11.30;99.90
43858;DHT22;29507;51.284;5.758;2023-01-04T16:46:44;11.30;99.90
43858;DHT22;29507;51.284;5.758;2023-01-04T16:49:14;11.30;99.90
43858;DHT22;29507;51.284;5.758;2023-01-04T16:51:42;11.20;99.90
43858;DHT22;29507;51.284;5.758;2023-01-04T16:54:10;11.20;99.90
43858;DHT22;29507;51.284;5.758;2023-01-04T16:56:36;11.20;99.90
43858;DHT22;29507;51.284;5.758;2023-01-04T16:59:02;11.20;99.90
43858;DHT22;29507;51.284;5.758;2023-01-04T17:01:30;11.20;99.90
43858;DHT22;29507;51.284;5.758;2023-01-04T17:03:59;11.30;99.90
43858;DHT22;29507;51.284;5.758;2023-01-04T17:06:28;11.30;99.90
43858;DHT22;29507;51.284;5.758;2023-01-04T17:08:55;11.20;99.90
43858;DHT22;29507;51.284;5.758;2023-01-04T17:11:26;11.30;99.90
43858;DHT22;29507;51.284;5.758;2023-01-04T17:13:52;11.40;99.90
43858;DHT22;29507;51.284;5.758;2023-01-04T17:16:18;11.40;99.90
43858;DHT22;29507;51.284;5.758;2023-01-04T17:18:46;11.50;99.90
43858;DHT22;29507;51.284;5.758;2023-01-04T17:21:13;11.50;99.90
43858;DHT22;29507;51.284;5.758;2023-01-04T17:23:43;11.40;99.90
43858;DHT22;29507;51.284;5.758;2023-01-04T17:26:13;11.50;99.90
43858;DHT22;29507;51.284;5.758;2023-01-04T17:28:39;11.50;99.90
43858;DHT22;29507;51.284;5.758;2023-01-04T17:31:12;11.50;99.90
43858;DHT22;29507;51.284;5.758;2023-01-04T17:33:39;11.60;99.90
43858;DHT22;29507;51.284;5.758;2023-01-04T17:36:07;11.60;99.90
43858;DHT22;29507;51.284;5.758;2023-01-04T17:38:33;11.60;99.90
43858;DHT22;29507;51.284;5.758;2023-01-04T17:41:26;11.60;99.90
43858;DHT22;29507;51.284;5.758;2023-01-04T17:44:00;11.60;99.90
43858;DHT22;29507;51.284;5.758;2023-01-04T17:46:29;11.60;99.90
43858;DHT22;29507;51.284;5.758;2023-01-04T17:48:57;11.60;99.90
43858;DHT22;29507;51.284;5.758;2023-01-04T17:51:24;11.70;99.90
43858;DHT22;29507;51.284;5.758;2023-01-04T17:53:58;11.60;99.90
43858;DHT22;29507;51.284;5.758;2023-01-04T17:56:25;11.60;99.90
43858;DHT22;29507;51.284;5.758;2023-01-04T17:58:51;11.60;99.90
43858;DHT22;29507;51.284;5.758;2023-01-04T18:01:22;11.60;99.90
43858;DHT22;29507;51.284;5.758;2023-01-04T18:03:52;11.60;99.90
43858;DHT22;29507;51.284;5.758;2023-01-04T18:06:20;11.70;99.90
43858;DHT22;29507;51.284;5.758;2023-01-04T18:08:46;11.70;99.90
43858;DHT22;29507;51.284;5.758;2023-01-04T18:11:12;11.70;99.90
43858;DHT22;29507;51.284;5.758;2023-01-04T18:13:41;11.70;99.90